Time;durP1;ratioP1;P1;durP2;ratioP2;P2;SDS_P1;SDS_P2;PMS_P1;PMS_P2;Temp;Humidity;BMP_temperature;BMP_pressure;BME280_temperature;BME280_humidity;BME280_pressure;Samples;Min_cycle;Max_cycle;Signal;HPM_P1;HPM_P2
2021/08/25 00:00:54;;;;;;;11.60;8.83;;;;;;;13.90;92.87;97358.69;5045344;28;20182;-65
2021/08/25 00:03:19;;;;;;;10.23;8.97;;;;;;;13.97;92.29;97354.91;5040158;28;20193;-65
2021/08/25 00:05:45;;;;;;;10.03;8.73;;;;;;;14.23;90.75;97358.81;5039395;28;20186;-65
2021/08/25 00:08:11;;;;;;;10.17;9.10;;;;;;;13.83;92.92;97352.75;5040509;28;20635;-65
2021/08/25 00:10:36;;;;;;;10.97;8.70;;;;;;;13.84;93.18;97359.63;5043180;28;20261;-65
2021/08/25 00:13:06;;;;;;;9.97;8.93;;;;;;;13.82;93.18;97354.56;5044667;28;20186;-65
2021/08/25 00:15:35;;;;;;;11.87;9.13;;;;;;;13.94;92.31;97352.72;5040653;28;20251;-73
2021/08/25 00:18:00;;;;;;;10.97;9.00;;;;;;;14.13;91.02;97353.34;5039418;28;20194;-64
2021/08/25 00:20:25;;;;;;;10.57;8.90;;;;;;;13.87;92.15;97357.34;5033805;28;20183;-64
2021/08/25 00:22:50;;;;;;;11.70;8.67;;;;;;;13.90;92.17;97356.06;5033005;28;20685;-65
2021/08/25 00:25:16;;;;;;;10.83;8.63;;;;;;;13.80;92.68;97354.03;5047933;28;20189;-65
2021/08/25 00:27:41;;;;;;;10.27;9.20;;;;;;;13.77;92.78;97351.03;5043389;28;20533;-64
2021/08/25 00:30:07;;;;;;;9.80;8.77;;;;;;;13.80;92.25;97351.38;5033420;28;20222;-72
2021/08/25 00:32:33;;;;;;;9.70;8.70;;;;;;;13.68;92.99;97354.03;5046504;28;20943;-73
2021/08/25 00:34:58;;;;;;;9.20;8.27;;;;;;;13.63;93.56;97353.13;5046162;28;20282;-64
2021/08/25 00:37:23;;;;;;;9.70;8.70;;;;;;;13.62;93.61;97349.69;5035025;28;20209;-64
2021/08/25 00:39:49;;;;;;;10.70;9.03;;;;;;;13.52;93.96;97349.50;5049249;28;20190;-64
2021/08/25 00:42:14;;;;;;;10.73;8.60;;;;;;;13.30;95.18;97351.09;5035147;28;20280;-64
2021/08/25 00:44:40;;;;;;;10.33;8.87;;;;;;;13.32;95.35;97338.50;5045049;28;20689;-65
2021/08/25 00:47:06;;;;;;;10.70;9.10;;;;;;;13.38;95.68;97334.16;5051737;28;20293;-64
2021/08/25 00:49:31;;;;;;;12.67;8.33;;;;;;;13.54;94.12;97328.97;5042962;28;20187;-73
2021/08/25 00:51:57;;;;;;;9.83;8.37;;;;;;;13.48;94.52;97337.81;5031586;28;20209;-65
2021/08/25 00:54:22;;;;;;;10.13;8.97;;;;;;;13.23;95.81;97332.78;5037118;28;20202;-64
2021/08/25 00:56:49;;;;;;;10.70;8.53;;;;;;;13.23;95.66;97324.09;5050681;28;20178;-65
2021/08/25 00:59:17;;;;;;;9.73;8.73;;;;;;;13.13;96.70;97326.50;5050779;28;20268;-66
2021/08/25 01:01:48;;;;;;;10.27;9.03;;;;;;;13.24;96.13;97330.97;5050885;28;20181;-65
2021/08/25 01:04:21;;;;;;;10.53;8.67;;;;;;;13.18;95.90;97327.41;5050334;28;20166;-68
2021/08/25 01:06:49;;;;;;;12.63;9.27;;;;;;;13.31;94.93;97335.09;5050716;28;20175;-64
2021/08/25 01:09:14;;;;;;;10.63;9.03;;;;;;;13.08;96.70;97331.63;5051557;28;20230;-72
2021/08/25 01:11:47;;;;;;;10.13;8.70;;;;;;;13.13;96.51;97335.19;5050927;28;20181;-65
2021/08/25 01:14:12;;;;;;;11.27;8.90;;;;;;;13.24;95.40;97323.88;5047405;28;20221;-65
2021/08/25 01:16:40;;;;;;;9.80;8.60;;;;;;;13.05;96.40;97332.06;5038618;28;20186;-64
2021/08/25 01:19:07;;;;;;;9.57;8.53;;;;;;;12.93;97.87;97322.34;5031908;28;20194;-65
2021/08/25 01:21:34;;;;;;;10.40;8.53;;;;;;;12.94;97.28;97315.25;5035718;28;20315;-74
2021/08/25 01:24:00;;;;;;;11.77;8.63;;;;;;;13.17;95.84;97314.47;5051259;28;20260;-65
2021/08/25 01:26:25;;;;;;;9.87;8.40;;;;;;;13.01;96.78;97310.69;5050801;28;20271;-64
2021/08/25 01:28:56;;;;;;;12.37;8.30;;;;;;;13.17;95.87;97304.75;5038519;28;20763;-64
2021/08/25 01:31:27;;;;;;;11.07;8.93;;;;;;;13.31;94.77;97305.31;5033080;28;20185;-67
2021/08/25 01:34:03;;;;;;;10.77;8.23;;;;;;;13.23;94.89;97295.94;5031410;28;20203;-65
2021/08/25 01:36:28;;;;;;;11.23;8.93;;;;;;;12.98;96.27;97297.19;5031666;28;20172;-65
2021/08/25 01:38:54;;;;;;;10.60;8.90;;;;;;;12.83;96.86;97284.47;5050265;28;20257;-65
2021/08/25 01:41:21;;;;;;;8.97;8.07;;;;;;;12.81;97.35;97291.81;5048247;28;20233;-64
2021/08/25 01:43:48;;;;;;;10.23;8.20;;;;;;;12.59;98.69;97281.03;5036227;28;20547;-65
2021/08/25 01:46:23;;;;;;;11.40;9.10;;;;;;;12.66;97.89;97286.97;5050951;28;20212;-65
2021/08/25 01:48:49;;;;;;;12.33;8.43;;;;;;;12.69;97.49;97275.22;5050484;28;20570;-64
2021/08/25 01:51:14;;;;;;;10.27;8.30;;;;;;;12.60;98.08;97287.06;5049685;28;20236;-65
2021/08/25 01:53:39;;;;;;;11.43;8.50;;;;;;;12.50;98.36;97277.13;5030115;28;20233;-65
2021/08/25 01:56:05;;;;;;;10.43;8.80;;;;;;;12.52;98.29;97279.53;5032173;28;20175;-64
2021/08/25 01:58:30;;;;;;;11.77;8.50;;;;;;;12.61;98.34;97278.16;5031325;28;20651;-64
2021/08/25 02:00:56;;;;;;;12.60;8.93;;;;;;;12.81;97.11;97292.59;5046387;28;20241;-64
2021/08/25 02:03:21;;;;;;;14.27;9.97;;;;;;;12.93;95.85;97290.75;5031434;28;20194;-65
2021/08/25 02:05:47;;;;;;;11.47;9.27;;;;;;;12.66;97.55;97297.50;5041693;28;20658;-70
2021/08/25 02:08:12;;;;;;;10.27;9.13;;;;;;;12.78;96.82;97303.56;5037525;28;20570;-64
2021/08/25 02:10:38;;;;;;;12.20;8.47;;;;;;;12.83;96.64;97300.25;5033698;28;20236;-65
2021/08/25 02:13:03;;;;;;;13.10;9.00;;;;;;;12.93;95.87;97289.19;5034936;28;20269;-65
2021/08/25 02:15:29;;;;;;;10.37;9.27;;;;;;;12.95;95.41;97289.72;5039111;28;20222;-65
2021/08/25 02:17:54;;;;;;;10.30;8.10;;;;;;;12.85;95.81;97285.06;5042858;28;20178;-66
2021/08/25 02:20:20;;;;;;;12.13;8.67;;;;;;;12.93;95.16;97282.88;5034922;28;20549;-66
2021/08/25 02:22:45;;;;;;;11.57;8.93;;;;;;;13.09;94.66;97285.84;5039212;28;20181;-68
2021/08/25 02:25:11;;;;;;;10.47;9.00;;;;;;;12.67;96.92;97280.69;5048930;28;20186;-66
2021/08/25 02:27:36;;;;;;;11.40;8.97;;;;;;;12.75;97.22;97274.31;5047861;28;20188;-74
2021/08/25 02:30:02;;;;;;;9.97;8.93;;;;;;;12.71;97.15;97273.13;5034433;28;20253;-66
2021/08/25 02:32:28;;;;;;;13.83;9.53;;;;;;;12.60;98.02;97269.47;5048742;28;20647;-66
2021/08/25 02:34:53;;;;;;;12.23;9.67;;;;;;;12.61;98.46;97270.28;5053108;28;20202;-67
2021/08/25 02:37:20;;;;;;;12.27;9.43;;;;;;;12.41;99.25;97279.28;5054255;28;20181;-66
2021/08/25 02:39:45;;;;;;;14.00;9.77;;;;;;;12.59;98.69;97273.16;5053328;28;20259;-67
2021/08/25 02:42:11;;;;;;;11.67;9.40;;;;;;;12.55;98.67;97271.16;5042010;28;20306;-66
2021/08/25 02:44:37;;;;;;;11.27;10.00;;;;;;;12.24;100.00;97273.06;5032352;28;20239;-74
2021/08/25 02:47:03;;;;;;;11.17;9.87;;;;;;;12.24;100.00;97264.38;5034161;28;20649;-66
2021/08/25 02:49:29;;;;;;;12.87;10.90;;;;;;;12.30;100.00;97264.28;5033964;28;20183;-69
2021/08/25 02:51:54;;;;;;;14.10;11.40;;;;;;;12.38;100.00;97260.50;5044780;28;20755;-66
2021/08/25 02:54:19;;;;;;;13.70;10.87;;;;;;;12.31;100.00;97262.47;5053834;28;20556;-66
2021/08/25 02:56:45;;;;;;;12.97;11.17;;;;;;;12.34;100.00;97254.13;5053153;28;20186;-67
2021/08/25 02:59:10;;;;;;;13.27;11.63;;;;;;;12.20;100.00;97256.16;5051840;28;20183;-66
2021/08/25 03:01:36;;;;;;;12.87;10.77;;;;;;;12.16;100.00;97259.44;5040567;28;20182;-74
2021/08/25 03:04:01;;;;;;;14.33;11.80;;;;;;;11.99;100.00;97249.56;5032621;28;20182;-66
2021/08/25 03:06:26;;;;;;;12.90;11.53;;;;;;;11.95;100.00;97258.13;5033154;28;20240;-66
2021/08/25 03:08:52;;;;;;;17.20;11.87;;;;;;;11.95;100.00;97247.63;5035623;28;20199;-68
2021/08/25 03:11:17;;;;;;;12.70;11.40;;;;;;;11.93;100.00;97247.81;5041348;28;20206;-67
2021/08/25 03:13:43;;;;;;;15.37;12.17;;;;;;;11.98;100.00;97247.19;5042294;28;20190;-66
2021/08/25 03:16:09;;;;;;;15.57;12.50;;;;;;;11.89;100.00;97244.06;5038662;28;20182;-66
2021/08/25 03:18:34;;;;;;;14.97;13.17;;;;;;;11.86;100.00;97241.88;5040199;28;20701;-69
2021/08/25 03:21:00;;;;;;;14.73;12.97;;;;;;;12.02;100.00;97238.63;5043499;28;20388;-66
2021/08/25 03:23:25;;;;;;;15.50;12.97;;;;;;;12.19;100.00;97240.59;5049866;28;20271;-65
2021/08/25 03:25:51;;;;;;;14.13;12.63;;;;;;;12.18;100.00;97241.63;5039773;28;20717;-68
2021/08/25 03:28:18;;;;;;;15.80;13.30;;;;;;;12.21;100.00;97241.97;5036992;28;20263;-66
2021/08/25 03:30:43;;;;;;;15.47;12.97;;;;;;;12.20;100.00;97248.28;5051131;28;20190;-66
2021/08/25 03:33:08;;;;;;;15.67;13.57;;;;;;;12.30;100.00;97251.16;5039852;28;20536;-65
2021/08/25 03:35:34;;;;;;;14.27;12.80;;;;;;;12.32;100.00;97237.75;5041937;28;20213;-65
2021/08/25 03:37:59;;;;;;;17.70;12.77;;;;;;;12.12;100.00;97235.44;5045402;28;20186;-66
2021/08/25 03:40:25;;;;;;;14.50;12.90;;;;;;;12.16;100.00;97233.16;5036076;28;20273;-66
2021/08/25 03:42:50;;;;;;;13.70;12.30;;;;;;;11.98;100.00;97237.44;5039457;28;20242;-66
2021/08/25 03:45:16;;;;;;;15.17;12.87;;;;;;;12.14;100.00;97228.16;5040766;28;20679;-66
2021/08/25 03:47:41;;;;;;;14.87;12.80;;;;;;;12.36;100.00;97229.22;5041985;28;20499;-66
2021/08/25 03:50:07;;;;;;;15.57;11.87;;;;;;;12.32;100.00;97227.25;5038399;28;20182;-66
2021/08/25 03:52:33;;;;;;;14.87;12.07;;;;;;;12.20;100.00;97240.38;5049111;28;20194;-66
2021/08/25 03:54:58;;;;;;;14.80;12.23;;;;;;;12.28;100.00;97234.00;5034694;28;20276;-67
2021/08/25 03:57:23;;;;;;;15.93;12.67;;;;;;;12.12;100.00;97232.00;5033399;28;20189;-66
2021/08/25 03:59:49;;;;;;;14.20;12.43;;;;;;;12.15;100.00;97223.69;5031525;28;20573;-70
2021/08/25 04:02:14;;;;;;;14.27;12.10;;;;;;;12.32;100.00;97230.69;5051518;28;20212;-67
2021/08/25 04:04:39;;;;;;;15.83;13.03;;;;;;;12.12;100.00;97227.56;5051244;28;20248;-73
2021/08/25 04:07:05;;;;;;;15.13;12.77;;;;;;;12.17;100.00;97234.75;5052200;28;20262;-67
2021/08/25 04:09:30;;;;;;;17.13;13.77;;;;;;;12.07;100.00;97219.56;5052332;28;20619;-70
2021/08/25 04:11:56;;;;;;;15.37;13.13;;;;;;;11.97;100.00;97229.81;5051911;28;20728;-67
2021/08/25 04:14:21;;;;;;;13.90;11.73;;;;;;;12.12;100.00;97224.94;5052213;28;20206;-67
2021/08/25 04:16:46;;;;;;;16.83;12.37;;;;;;;12.14;100.00;97224.72;5035497;28;20190;-67
2021/08/25 04:19:12;;;;;;;14.03;12.40;;;;;;;12.10;100.00;97219.09;5038810;28;20194;-67
2021/08/25 04:21:37;;;;;;;14.93;12.57;;;;;;;11.95;100.00;97218.72;5051885;28;20257;-73
2021/08/25 04:24:03;;;;;;;14.70;11.77;;;;;;;11.94;100.00;97222.38;5051360;28;20542;-67
2021/08/25 04:26:28;;;;;;;14.07;12.40;;;;;;;11.99;100.00;97214.59;5036647;28;20200;-67
2021/08/25 04:28:53;;;;;;;13.80;11.93;;;;;;;11.84;100.00;97211.59;5047641;28;20538;-67
2021/08/25 04:31:19;;;;;;;18.00;12.57;;;;;;;11.80;100.00;97218.34;5052157;28;20181;-64
2021/08/25 04:33:44;;;;;;;13.70;11.40;;;;;;;11.67;100.00;97217.47;5051142;28;20668;-65
2021/08/25 04:36:09;;;;;;;13.53;11.17;;;;;;;11.63;100.00;97220.75;5041112;28;20197;-65
2021/08/25 04:38:35;;;;;;;12.90;11.63;;;;;;;11.74;100.00;97216.59;5032058;28;20182;-63
2021/08/25 04:41:00;;;;;;;14.93;12.07;;;;;;;11.71;100.00;97219.63;5030808;28;20297;-63
2021/08/25 04:43:27;;;;;;;15.07;11.30;;;;;;;11.74;100.00;97224.47;5031910;28;20171;-65
2021/08/25 04:45:52;;;;;;;15.33;11.13;;;;;;;11.83;100.00;97221.31;5035550;28;20538;-63
2021/08/25 04:48:18;;;;;;;12.57;10.43;;;;;;;11.80;100.00;97219.13;5039679;28;20178;-63
2021/08/25 04:50:43;;;;;;;11.30;9.97;;;;;;;11.74;100.00;97214.78;5042147;28;20197;-64
2021/08/25 04:53:08;;;;;;;12.43;10.70;;;;;;;11.77;100.00;97216.94;5044482;28;20202;-63
2021/08/25 04:55:35;;;;;;;11.03;9.87;;;;;;;11.83;100.00;97216.06;5032307;28;20282;-64
2021/08/25 04:58:01;;;;;;;12.87;9.87;;;;;;;11.83;100.00;97217.88;5044413;28;20323;-63
2021/08/25 05:00:26;;;;;;;11.17;9.40;;;;;;;12.06;100.00;97218.75;5034872;28;20245;-64
2021/08/25 05:02:52;;;;;;;11.80;9.80;;;;;;;12.18;100.00;97226.66;5045422;28;20182;-65
2021/08/25 05:05:17;;;;;;;11.03;9.47;;;;;;;12.31;100.00;97217.78;5038691;28;20671;-65
2021/08/25 05:07:42;;;;;;;11.53;9.30;;;;;;;12.50;99.17;97221.91;5038702;28;20193;-71
2021/08/25 05:10:08;;;;;;;10.70;8.53;;;;;;;12.86;96.88;97220.88;5039332;28;20241;-65
2021/08/25 05:12:34;;;;;;;11.80;9.20;;;;;;;13.24;94.49;97225.66;5041526;28;20717;-64
2021/08/25 05:14:59;;;;;;;11.27;8.50;;;;;;;13.59;91.81;97222.94;5041493;28;20781;-64
2021/08/25 05:17:25;;;;;;;10.60;9.03;;;;;;;13.66;91.35;97231.47;5041714;28;20213;-68
2021/08/25 05:19:50;;;;;;;11.53;8.20;;;;;;;13.89;89.88;97227.97;5042290;28;20197;-67
2021/08/25 05:22:15;;;;;;;9.13;7.93;;;;;;;13.63;90.71;97230.13;5042015;28;20654;-65
2021/08/25 05:24:41;;;;;;;12.07;8.87;;;;;;;13.86;89.95;97221.34;5041842;28;20194;-72
2021/08/25 05:27:06;;;;;;;10.40;9.17;;;;;;;13.95;89.25;97234.91;5033785;28;20193;-65
2021/08/25 05:29:31;;;;;;;12.57;8.50;;;;;;;13.94;89.32;97226.22;5033284;28;20182;-66
2021/08/25 05:31:57;;;;;;;9.50;8.37;;;;;;;13.81;89.67;97220.44;5046105;28;20183;-66
2021/08/25 05:34:22;;;;;;;10.10;8.87;;;;;;;13.96;89.03;97231.25;5049901;28;20596;-66
2021/08/25 05:36:48;;;;;;;12.03;8.23;;;;;;;13.99;88.34;97230.78;5050426;28;20526;-70
2021/08/25 05:39:14;;;;;;;9.10;8.20;;;;;;;13.84;89.42;97241.84;5031839;28;20214;-68
2021/08/25 05:41:39;;;;;;;9.93;7.93;;;;;;;13.82;89.53;97249.19;5031215;28;20687;-71
2021/08/25 05:44:05;;;;;;;9.40;8.40;;;;;;;14.01;89.10;97237.41;5031291;28;20190;-66
2021/08/25 05:46:31;;;;;;;10.27;7.80;;;;;;;14.27;86.65;97241.28;5046800;28;20182;-64
2021/08/25 05:48:57;;;;;;;8.50;7.50;;;;;;;14.17;87.31;97243.75;5054286;28;20182;-65
2021/08/25 05:51:23;;;;;;;10.30;7.83;;;;;;;14.33;86.28;97245.59;5046842;28;20208;-68
2021/08/25 05:53:51;;;;;;;10.80;7.67;;;;;;;14.01;86.96;97242.69;5034159;28;20707;-67
2021/08/25 05:56:16;;;;;;;10.40;7.50;;;;;;;14.19;86.42;97248.78;5035015;28;20186;-65
2021/08/25 05:58:42;;;;;;;10.20;7.20;;;;;;;14.37;85.94;97243.34;5034917;28;20182;-75
2021/08/25 06:01:08;;;;;;;8.27;7.40;;;;;;;14.81;84.02;97241.63;5035682;28;20592;-65
2021/08/25 06:03:33;;;;;;;8.90;7.27;;;;;;;15.01;82.09;97233.19;5034527;28;20244;-65
2021/08/25 06:05:58;;;;;;;7.63;6.70;;;;;;;15.06;81.28;97244.63;5040811;28;20498;-65
2021/08/25 06:08:24;;;;;;;7.37;6.63;;;;;;;14.76;82.86;97245.00;5054643;28;20270;-66
2021/08/25 06:10:49;;;;;;;7.77;6.97;;;;;;;14.71;81.63;97246.78;5042639;28;20178;-65
2021/08/25 06:13:15;;;;;;;9.60;6.93;;;;;;;14.73;83.04;97250.75;5034496;28;20214;-65
2021/08/25 06:15:40;;;;;;;7.63;6.83;;;;;;;15.00;81.97;97240.31;5033855;28;20194;-65
2021/08/25 06:18:06;;;;;;;8.03;6.40;;;;;;;15.25;80.34;97243.31;5037448;28;20726;-65
2021/08/25 06:20:31;;;;;;;7.77;6.23;;;;;;;15.60;79.08;97239.53;5041497;28;20181;-65
2021/08/25 06:22:56;;;;;;;8.07;6.20;;;;;;;15.26;80.42;97231.72;5048582;28;20185;-65
2021/08/25 06:25:22;;;;;;;8.73;6.57;;;;;;;15.55;78.60;97228.91;5046162;28;20673;-67
2021/08/25 06:27:47;;;;;;;8.53;6.50;;;;;;;15.72;77.94;97224.31;5032294;28;20560;-67
2021/08/25 06:30:12;;;;;;;6.70;6.00;;;;;;;15.70;77.86;97221.94;5049526;28;20265;-65
2021/08/25 06:32:38;;;;;;;7.17;6.33;;;;;;;15.78;77.49;97218.84;5050379;28;20186;-65
2021/08/25 06:35:05;;;;;;;7.20;6.27;;;;;;;15.58;77.74;97223.94;5036447;28;20198;-68
2021/08/25 06:37:30;;;;;;;6.87;5.63;;;;;;;15.47;78.92;97222.19;5046819;28;20221;-69
2021/08/25 06:39:56;;;;;;;7.10;6.40;;;;;;;15.66;78.83;97220.06;5043912;28;20215;-68
2021/08/25 06:42:21;;;;;;;6.77;6.07;;;;;;;15.52;77.62;97235.47;5040097;28;20237;-68
2021/08/25 06:44:47;;;;;;;7.53;5.93;;;;;;;15.59;77.30;97230.81;5047956;28;20216;-72
2021/08/25 06:47:12;;;;;;;6.70;6.00;;;;;;;15.27;77.64;97229.84;5046813;28;20549;-68
2021/08/25 06:49:37;;;;;;;6.63;5.30;;;;;;;15.33;78.43;97223.56;5037463;28;20183;-70
2021/08/25 06:52:03;;;;;;;8.37;6.13;;;;;;;15.58;77.68;97223.94;5041475;28;20793;-69
2021/08/25 06:54:28;;;;;;;6.90;6.20;;;;;;;15.85;76.82;97233.72;5039764;28;20205;-73
2021/08/25 06:56:54;;;;;;;5.93;5.33;;;;;;;15.95;75.74;97226.69;5041562;28;20185;-69
2021/08/25 06:59:19;;;;;;;6.23;5.63;;;;;;;16.16;73.75;97219.75;5047547;28;20187;-69
2021/08/25 07:01:45;;;;;;;6.43;5.53;;;;;;;15.93;75.02;97230.63;5048971;28;20192;-73
2021/08/25 07:04:10;;;;;;;5.63;5.10;;;;;;;15.74;74.31;97223.03;5048579;28;20213;-69
2021/08/25 07:06:36;;;;;;;6.10;5.10;;;;;;;15.89;75.24;97219.75;5051553;28;20182;-69
2021/08/25 07:09:01;;;;;;;9.27;5.10;;;;;;;15.86;75.21;97216.81;5052921;28;20201;-69
2021/08/25 07:11:26;;;;;;;5.93;5.20;;;;;;;16.05;75.68;97212.78;5034988;28;20193;-68
2021/08/25 07:13:52;;;;;;;5.77;5.07;;;;;;;16.52;73.04;97204.97;5028804;28;20212;-69
2021/08/25 07:16:17;;;;;;;5.50;5.00;;;;;;;16.42;73.43;97205.69;5050779;28;20612;-69
2021/08/25 07:18:43;;;;;;;6.60;5.30;;;;;;;16.31;72.34;97206.66;5043066;28;20256;-69
2021/08/25 07:21:10;;;;;;;6.37;4.80;;;;;;;16.39;72.06;97197.44;5033055;28;20213;-68
2021/08/25 07:23:36;;;;;;;6.47;4.80;;;;;;;16.57;73.28;97202.34;5032768;28;20186;-70
2021/08/25 07:26:02;;;;;;;5.63;5.03;;;;;;;16.45;72.50;97202.53;5032499;28;20213;-69
2021/08/25 07:28:27;;;;;;;5.30;4.80;;;;;;;16.22;71.49;97206.31;5034872;28;20368;-70
2021/08/25 07:30:53;;;;;;;5.00;4.50;;;;;;;16.33;72.22;97198.47;5051503;28;20205;-69
2021/08/25 07:33:20;;;;;;;6.17;4.80;;;;;;;16.32;71.46;97197.69;5036944;28;20212;-69
2021/08/25 07:35:46;;;;;;;6.00;5.30;;;;;;;16.21;71.33;97196.00;5040452;28;20264;-72
2021/08/25 07:38:13;;;;;;;7.53;4.87;;;;;;;16.42;71.91;97200.41;5032914;28;20214;-69
2021/08/25 07:40:38;;;;;;;5.43;4.40;;;;;;;16.52;71.09;97202.31;5032792;28;20186;-69
2021/08/25 07:43:04;;;;;;;4.90;4.40;;;;;;;16.88;69.75;97196.25;5050744;28;20267;-70
2021/08/25 07:45:30;;;;;;;4.30;3.80;;;;;;;17.28;68.72;97194.81;5052869;28;20232;-69
2021/08/25 07:47:55;;;;;;;5.87;4.60;;;;;;;17.37;67.59;97201.22;5050600;28;20178;-69
2021/08/25 07:50:20;;;;;;;5.90;4.20;;;;;;;17.21;67.81;97196.94;5052936;28;20174;-69
2021/08/25 07:52:46;;;;;;;5.00;4.50;;;;;;;17.57;67.05;97192.53;5039760;28;20198;-73
2021/08/25 07:55:11;;;;;;;5.33;4.30;;;;;;;17.64;67.88;97198.44;5036387;28;20288;-70
2021/08/25 07:57:36;;;;;;;8.25;4.68;;;;;;;17.49;68.27;97201.03;5038427;28;20643;-69
2021/08/25 08:00:03;;;;;;;5.93;4.87;;;;;;;17.26;69.75;97211.00;5036134;28;20282;-70
2021/08/25 08:02:29;;;;;;;6.38;5.18;;;;;;;16.91;68.77;97201.00;5037256;28;20178;-69
2021/08/25 08:04:54;;;;;;;5.85;4.55;;;;;;;16.98;71.20;97212.19;5036112;28;20287;-69
2021/08/25 08:07:19;;;;;;;5.93;5.13;;;;;;;17.05;71.39;97196.84;5041812;28;20228;-68
2021/08/25 08:09:45;;;;;;;7.20;4.63;;;;;;;17.14;71.99;97209.59;5046099;28;20644;-73
2021/08/25 08:12:10;;;;;;;8.33;5.57;;;;;;;16.98;73.10;97208.72;5041547;28;20248;-69
2021/08/25 08:14:35;;;;;;;5.53;4.93;;;;;;;17.16;71.65;97207.50;5042078;28;20202;-69
2021/08/25 08:17:03;;;;;;;8.53;4.83;;;;;;;17.15;72.46;97205.91;5042963;28;20520;-69
2021/08/25 08:19:33;;;;;;;5.67;4.97;;;;;;;17.22;70.50;97198.53;5047924;28;20190;-69
2021/08/25 08:21:59;;;;;;;5.03;4.53;;;;;;;17.12;71.05;97198.47;5037840;28;20169;-69
2021/08/25 08:24:26;;;;;;;4.83;4.40;;;;;;;17.07;72.48;97211.69;5046125;28;20190;-69
2021/08/25 08:26:51;;;;;;;5.60;4.90;;;;;;;17.53;71.57;97208.19;5069237;28;20752;-69
2021/08/25 08:29:17;;;;;;;5.23;4.40;;;;;;;17.04;71.88;97205.88;5039339;28;20183;-68
2021/08/25 08:31:42;;;;;;;5.97;4.73;;;;;;;17.19;72.12;97199.03;5031144;28;20663;-69
2021/08/25 08:34:08;;;;;;;5.40;4.60;;;;;;;17.00;72.26;97191.50;5046901;28;20741;-69
2021/08/25 08:36:33;;;;;;;5.10;4.50;;;;;;;17.20;72.40;97203.28;5044521;28;20256;-69
2021/08/25 08:38:59;;;;;;;5.43;4.67;;;;;;;17.73;70.09;97210.13;5049611;28;20581;-69
2021/08/25 08:41:25;;;;;;;5.80;4.23;;;;;;;18.11;68.37;97199.03;5016020;28;20233;-69
2021/08/25 08:43:52;;;;;;;4.73;4.07;;;;;;;17.84;68.34;97195.81;5031369;28;20194;-70
2021/08/25 08:46:20;;;;;;;5.87;4.13;;;;;;;17.46;68.45;97200.47;5039900;28;20181;-69
2021/08/25 08:48:48;;;;;;;4.45;4.05;;;;;;;17.57;68.40;97196.00;5035934;28;20663;-70
2021/08/25 08:51:18;;;;;;;5.75;4.13;;;;;;;17.42;69.00;97199.41;5042747;28;20236;-69
2021/08/25 08:53:45;;;;;;;5.03;4.13;;;;;;;17.61;69.10;97196.31;5035526;28;20183;-69
2021/08/25 08:56:10;;;;;;;6.70;4.20;;;;;;;17.27;68.86;97203.84;5035282;28;20298;-69
2021/08/25 08:58:40;;;;;;;4.78;4.28;;;;;;;17.41;68.57;97200.44;5036044;28;20273;-69
2021/08/25 09:01:06;;;;;;;4.27;3.87;;;;;;;17.63;65.78;97194.97;5033223;28;20190;-69
2021/08/25 09:03:34;;;;;;;4.50;4.10;;;;;;;17.32;67.58;97204.66;5035290;28;20574;-68
2021/08/25 09:06:01;;;;;;;4.45;4.05;;;;;;;17.43;66.06;97190.41;5033676;28;20191;-68
2021/08/25 09:08:29;;;;;;;4.60;4.20;;;;;;;17.76;65.95;97191.84;5031346;28;20623;-68
2021/08/25 09:11:13;;;;;;;4.03;3.63;;;;;;;17.77;65.49;97201.41;5046970;28;20182;-68
2021/08/25 09:13:50;;;;;;;4.40;3.17;;;;;;;17.67;64.62;97193.41;5048425;28;20253;-71
2021/08/25 09:16:33;;;;;;;3.58;3.28;;;;;;;17.59;64.79;97195.75;5031446;28;20273;-68
2021/08/25 09:19:04;;;;;;;3.40;3.10;;;;;;;17.46;64.14;97183.75;5030065;28;20214;-68
2021/08/25 09:21:33;;;;;;;4.13;3.10;;;;;;;17.59;63.56;97183.28;5049784;28;20201;-68
2021/08/25 09:23:58;;;;;;;2.85;2.60;;;;;;;17.87;63.10;97187.34;5047160;28;20285;-70
2021/08/25 09:26:24;;;;;;;4.03;3.33;;;;;;;17.89;63.29;97192.41;5040805;28;20277;-68
2021/08/25 09:28:51;;;;;;;3.53;3.23;;;;;;;17.88;61.94;97186.31;5050971;28;20186;-74
2021/08/25 09:31:17;;;;;;;3.40;2.83;;;;;;;17.84;62.68;97185.22;5039036;28;20245;-68
2021/08/25 09:33:45;;;;;;;3.40;3.08;;;;;;;17.93;61.56;97185.50;5030462;28;20187;-68
2021/08/25 09:36:13;;;;;;;5.50;3.05;;;;;;;17.90;62.54;97184.16;5030436;28;20174;-68
2021/08/25 09:38:40;;;;;;;4.03;2.95;;;;;;;17.56;63.60;97190.94;5031155;28;20321;-70
2021/08/25 09:41:11;;;;;;;3.97;3.00;;;;;;;17.56;61.86;97185.63;5040313;28;20286;-68
2021/08/25 09:43:37;;;;;;;4.18;2.67;;;;;;;17.70;59.72;97187.59;5036461;28;20667;-68
2021/08/25 09:46:03;;;;;;;2.83;2.53;;;;;;;17.62;60.77;97188.09;5030258;28;20178;-68
2021/08/25 09:48:33;;;;;;;4.20;3.10;;;;;;;17.65;60.34;97179.63;5030960;28;20189;-68
2021/08/25 09:50:58;;;;;;;6.40;3.40;;;;;;;17.62;60.99;97184.63;5039114;28;20198;-68
2021/08/25 09:53:23;;;;;;;3.75;3.30;;;;;;;17.86;59.57;97181.25;5040208;28;20229;-68
2021/08/25 09:55:49;;;;;;;4.43;2.72;;;;;;;17.95;59.71;97165.59;5037644;28;20647;-73
2021/08/25 09:58:14;;;;;;;4.38;2.85;;;;;;;17.99;59.57;97174.66;5034495;28;20241;-68
2021/08/25 10:00:41;;;;;;;3.22;2.92;;;;;;;17.98;58.42;97159.78;5034676;28;20190;-68
2021/08/25 10:03:06;;;;;;;3.30;3.00;;;;;;;18.11;58.51;97171.75;5035570;28;20726;-68
2021/08/25 10:05:31;;;;;;;3.17;2.88;;;;;;;18.24;58.01;97168.53;5033951;28;20194;-68
2021/08/25 10:07:57;;;;;;;3.85;3.03;;;;;;;18.27;57.67;97173.34;5044220;28;20655;-68
2021/08/25 10:10:22;;;;;;;7.75;2.70;;;;;;;18.27;55.85;97175.97;5035794;28;20174;-68
2021/08/25 10:12:50;;;;;;;3.85;3.22;;;;;;;18.38;57.52;97166.97;5034698;28;20273;-71
2021/08/25 10:15:30;;;;;;;3.53;3.22;;;;;;;18.40;57.21;97170.13;5046469;28;20200;-67
2021/08/25 10:17:55;;;;;;;3.95;3.08;;;;;;;18.58;57.22;97168.81;5032917;28;20597;-67
2021/08/25 10:20:24;;;;;;;3.22;2.88;;;;;;;18.44;56.14;97162.44;5047775;28;20264;-67
2021/08/25 10:22:50;;;;;;;3.03;2.78;;;;;;;18.53;56.96;97161.63;5037997;28;20190;-69
2021/08/25 10:25:16;;;;;;;3.63;3.30;;;;;;;18.56;56.48;97153.16;5029127;28;20178;-67
2021/08/25 10:28:06;;;;;;;3.65;3.03;;;;;;;18.36;57.48;97168.28;5049235;28;20546;-67
2021/08/25 10:30:57;;;;;;;3.13;2.83;;;;;;;18.32;56.41;97175.97;5033566;28;20191;-67
2021/08/25 10:33:22;;;;;;;2.70;2.50;;;;;;;18.07;56.78;97168.81;5024783;28;20553;-67
2021/08/25 10:35:48;;;;;;;3.60;3.05;;;;;;;18.33;55.36;97152.91;5044703;28;20201;-66
2021/08/25 10:38:29;;;;;;;4.32;2.95;;;;;;;18.42;55.17;97168.00;5045295;28;20562;-67
2021/08/25 10:41:03;;;;;;;4.15;2.70;;;;;;;18.23;55.36;97153.69;5041890;28;20244;-67
2021/08/25 10:43:40;;;;;;;5.05;3.30;;;;;;;18.33;56.69;97139.63;5040813;28;20183;-66
2021/08/25 10:46:08;;;;;;;3.95;3.05;;;;;;;18.62;54.99;97138.78;5049318;28;20186;-67
2021/08/25 10:48:44;;;;;;;4.15;3.30;;;;;;;19.22;54.91;97125.59;5040190;28;20186;-67
2021/08/25 10:51:21;;;;;;;6.43;3.17;;;;;;;19.46;52.59;97122.03;5042045;28;20186;-69
2021/08/25 10:53:47;;;;;;;3.78;3.03;;;;;;;19.25;54.16;97123.19;5035811;28;20189;-68
2021/08/25 10:56:15;;;;;;;3.33;2.78;;;;;;;19.54;54.40;97118.00;5035594;28;20212;-70
2021/08/25 10:59:11;;;;;;;2.97;2.63;;;;;;;19.54;53.26;97119.88;5038850;28;20190;-69
2021/08/25 11:01:36;;;;;;;4.93;2.90;;;;;;;19.27;55.17;97107.75;5031201;28;20194;-68
2021/08/25 11:04:07;;;;;;;4.05;3.20;;;;;;;18.89;54.64;97113.78;5036629;28;20187;-68
2021/08/25 11:06:41;;;;;;;4.32;3.00;;;;;;;18.72;53.25;97108.00;5036549;28;20189;-68
2021/08/25 11:09:20;;;;;;;4.43;3.03;;;;;;;18.88;53.10;97115.63;5033138;28;20604;-68
2021/08/25 11:11:46;;;;;;;2.90;2.70;;;;;;;18.94;51.82;97108.44;5039816;28;20231;-68
2021/08/25 11:14:23;;;;;;;3.40;3.10;;;;;;;18.99;52.72;97103.91;5052725;28;20202;-68
2021/08/25 11:16:51;;;;;;;4.05;3.03;;;;;;;18.80;51.13;97102.91;5043863;28;20213;-68
2021/08/25 11:19:37;;;;;;;5.97;3.00;;;;;;;19.00;52.70;97102.03;5033238;28;20183;-68
2021/08/25 11:22:03;;;;;;;3.92;3.03;;;;;;;19.06;52.88;97087.66;5047519;28;20573;-68
2021/08/25 11:24:35;;;;;;;4.10;3.00;;;;;;;19.24;51.29;97091.53;5038022;28;20197;-66